Casterton, Victoria

5:56 AM AEST on July 25, 2016 (GMT +1000)
Mount Gambier | | Change Station

Elev 210 ft 37.75 °S, 140.79 °E | Updated 56 minutes ago

Light Rain Showers
Light Showers Rain
46 °F
Feels Like 42 °F
N
10
Wind Variable Wind from West

Today
High -- | Low -- °F
--% Chance of Precip.
Yesterday
High -- | Low -- °F
Precip. -- in
Pressure 29.77 in
Visibility 6.2 miles
Clouds Mostly Cloudy 4300 ft
Windchill 42 °F
Dew Point 43 °F
Humidity 87%
Rainfall 0.00 in
Snow Depth Not available.
7:39 AM 5:42 PM
Waning Gibbous, 73% visible
METAR YMTG 241900Z AUTO 28009KT 9999 -SHRA BKN043 08/06 Q1008
Pressure 29.77 in
Visibility 6.2 miles
Clouds Mostly Cloudy 4300 ft
Windchill 42 °F
Dew Point 43 °F
Humidity 87%
Rainfall 0.00 in
Snow Depth Not available.
7:39 AM 5:42 PM
Waning Gibbous, 73% visible
METAR YMTG 241900Z AUTO 28009KT 9999 -SHRA BKN043 08/06 Q1008

10-Day Weather Forecast

Almanac

Astronomy

Jul. 25, 2016 Rise Set
Actual Time
Civil Twilight
Nautical Twilight
Astronomical Twilight
Moon
Length of Visible Light
Length of Day
Tomorrow will be .
, % of the Moon is Illuminated

Today's Extremes

Country Highs Country Lows

Community

WunderPhotos

Upload Photos

1,927,176 photos uploaded!

WunderBlog® & News

Nearby

Air Quality

  Air Quality AQ Index Pollutant
Not available.

Snow Depth

Station Depth Elevation

Earthquake Activity

City Distance Mag. Time & Date
Minimum magnitude displayed is 2.5.

Coastal Water Temperatures

Place Temperature

Stations

Nearby Weather Stations

Station Location Temp. Windchill Dew Point Humidity Wind Precip. Elev Updated Type